sensor_id;sensor_type;location;lat;lon;timestamp;temperature;humidity
10443;DHT22;5269;51.146;16.986;2024-03-02T00:01:46;10.60;99.90
10443;DHT22;5269;51.146;16.986;2024-03-02T00:04:15;10.50;99.90
10443;DHT22;5269;51.146;16.986;2024-03-02T00:06:45;10.40;99.90
10443;DHT22;5269;51.146;16.986;2024-03-02T00:09:15;10.40;99.90
10443;DHT22;5269;51.146;16.986;2024-03-02T00:11:49;10.40;99.90
10443;DHT22;5269;51.146;16.986;2024-03-02T00:14:19;10.40;99.90
10443;DHT22;5269;51.146;16.986;2024-03-02T00:16:51;10.40;99.90
10443;DHT22;5269;51.146;16.986;2024-03-02T00:19:21;10.40;99.90
10443;DHT22;5269;51.146;16.986;2024-03-02T00:21:50;10.40;99.90
10443;DHT22;5269;51.146;16.986;2024-03-02T00:24:21;10.20;99.90
10443;DHT22;5269;51.146;16.986;2024-03-02T00:26:58;10.30;99.90
10443;DHT22;5269;51.146;16.986;2024-03-02T00:29:28;10.20;99.90
10443;DHT22;5269;51.146;16.986;2024-03-02T00:31:58;10.20;99.90
10443;DHT22;5269;51.146;16.986;2024-03-02T00:34:29;10.10;99.90
10443;DHT22;5269;51.146;16.986;2024-03-02T00:36:58;10.00;99.90
10443;DHT22;5269;51.146;16.986;2024-03-02T00:39:29;10.10;99.90
10443;DHT22;5269;51.146;16.986;2024-03-02T00:42:02;10.00;99.90
10443;DHT22;5269;51.146;16.986;2024-03-02T00:44:34;9.90;99.90
10443;DHT22;5269;51.146;16.986;2024-03-02T00:47:05;9.90;99.90
10443;DHT22;5269;51.146;16.986;2024-03-02T00:49:34;9.70;99.90
10443;DHT22;5269;51.146;16.986;2024-03-02T00:52:05;9.90;99.90
10443;DHT22;5269;51.146;16.986;2024-03-02T00:54:36;9.90;99.90
10443;DHT22;5269;51.146;16.986;2024-03-02T00:57:10;10.00;99.90
10443;DHT22;5269;51.146;16.986;2024-03-02T00:59:38;10.00;99.90
10443;DHT22;5269;51.146;16.986;2024-03-02T01:02:08;10.00;99.90
10443;DHT22;5269;51.146;16.986;2024-03-02T01:04:37;10.00;99.90
10443;DHT22;5269;51.146;16.986;2024-03-02T01:07:07;10.00;99.90
10443;DHT22;5269;51.146;16.986;2024-03-02T01:09:40;10.20;99.90
10443;DHT22;5269;51.146;16.986;2024-03-02T01:12:14;10.00;99.90
10443;DHT22;5269;51.146;16.986;2024-03-02T01:14:43;10.10;99.90
10443;DHT22;5269;51.146;16.986;2024-03-02T01:17:16;10.10;99.90
10443;DHT22;5269;51.146;16.986;2024-03-02T01:19:45;10.20;99.90
10443;DHT22;5269;51.146;16.986;2024-03-02T01:22:15;10.10;99.90
10443;DHT22;5269;51.146;16.986;2024-03-02T01:24:50;10.10;99.90
10443;DHT22;5269;51.146;16.986;2024-03-02T01:27:22;10.10;99.90
10443;DHT22;5269;51.146;16.986;2024-03-02T01:29:51;10.10;99.90
10443;DHT22;5269;51.146;16.986;2024-03-02T01:32:21;10.10;99.90
10443;DHT22;5269;51.146;16.986;2024-03-02T01:34:51;10.00;99.90
10443;DHT22;5269;51.146;16.986;2024-03-02T01:37:20;10.00;99.90
10443;DHT22;5269;51.146;16.986;2024-03-02T01:39:49;10.00;99.90
10443;DHT22;5269;51.146;16.986;2024-03-02T01:42:22;10.00;99.90
10443;DHT22;5269;51.146;16.986;2024-03-02T01:44:51;10.00;99.90
10443;DHT22;5269;51.146;16.986;2024-03-02T01:47:21;10.00;99.90
10443;DHT22;5269;51.146;16.986;2024-03-02T01:49:50;10.00;99.90
10443;DHT22;5269;51.146;16.986;2024-03-02T01:52:20;10.20;99.90
10443;DHT22;5269;51.146;16.986;2024-03-02T01:54:49;10.20;99.90
10443;DHT22;5269;51.146;16.986;2024-03-02T01:57:22;10.10;99.90
10443;DHT22;5269;51.146;16.986;2024-03-02T01:59:51;10.10;99.90
10443;DHT22;5269;51.146;16.986;2024-03-02T02:02:21;10.20;99.90
10443;DHT22;5269;51.146;16.986;2024-03-02T02:04:51;10.20;99.90
10443;DHT22;5269;51.146;16.986;2024-03-02T02:07:21;10.20;99.90
10443;DHT22;5269;51.146;16.986;2024-03-02T02:09:51;10.20;99.90
10443;DHT22;5269;51.146;16.986;2024-03-02T02:12:23;10.20;99.90
10443;DHT22;5269;51.146;16.986;2024-03-02T02:14:55;10.20;99.90
10443;DHT22;5269;51.146;16.986;2024-03-02T02:17:24;10.10;99.90
10443;DHT22;5269;51.146;16.986;2024-03-02T02:19:54;10.10;99.90
10443;DHT22;5269;51.146;16.986;2024-03-02T02:22:26;10.10;99.90
10443;DHT22;5269;51.146;16.986;2024-03-02T02:24:55;10.10;99.90
10443;DHT22;5269;51.146;16.986;2024-03-02T02:27:25;10.00;99.90
10443;DHT22;5269;51.146;16.986;2024-03-02T02:29:54;10.00;99.90
10443;DHT22;5269;51.146;16.986;2024-03-02T02:32:24;9.90;99.90
10443;DHT22;5269;51.146;16.986;2024-03-02T02:34:56;9.90;99.90
10443;DHT22;5269;51.146;16.986;2024-03-02T02:37:28;9.90;99.90
10443;DHT22;5269;51.146;16.986;2024-03-02T02:39:58;9.80;99.90
10443;DHT22;5269;51.146;16.986;2024-03-02T02:42:27;9.70;99.90
10443;DHT22;5269;51.146;16.986;2024-03-02T02:44:57;9.70;99.90
10443;DHT22;5269;51.146;16.986;2024-03-02T02:47:26;9.70;99.90
10443;DHT22;5269;51.146;16.986;2024-03-02T02:49:56;9.50;99.90
10443;DHT22;5269;51.146;16.986;2024-03-02T02:52:28;9.60;99.90
10443;DHT22;5269;51.146;16.986;2024-03-02T02:55:01;9.50;99.90
10443;DHT22;5269;51.146;16.986;2024-03-02T02:57:32;9.50;99.90
10443;DHT22;5269;51.146;16.986;2024-03-02T03:00:04;9.40;99.90
10443;DHT22;5269;51.146;16.986;2024-03-02T03:02:37;9.30;99.90
10443;DHT22;5269;51.146;16.986;2024-03-02T03:05:09;9.30;99.90
10443;DHT22;5269;51.146;16.986;2024-03-02T03:07:42;9.20;99.90
10443;DHT22;5269;51.146;16.986;2024-03-02T03:10:12;9.20;99.90
10443;DHT22;5269;51.146;16.986;2024-03-02T03:12:42;9.20;99.90
10443;DHT22;5269;51.146;16.986;2024-03-02T03:15:12;9.20;99.90
10443;DHT22;5269;51.146;16.986;2024-03-02T03:17:42;9.10;99.90
10443;DHT22;5269;51.146;16.986;2024-03-02T03:20:13;9.20;99.90
10443;DHT22;5269;51.146;16.986;2024-03-02T03:22:46;9.20;99.90
10443;DHT22;5269;51.146;16.986;2024-03-02T03:25:15;9.30;99.90
10443;DHT22;5269;51.146;16.986;2024-03-02T03:27:45;9.30;99.90
10443;DHT22;5269;51.146;16.986;2024-03-02T03:30:15;9.40;99.90
10443;DHT22;5269;51.146;16.986;2024-03-02T03:32:44;9.40;99.90
10443;DHT22;5269;51.146;16.986;2024-03-02T03:35:14;9.50;99.90
10443;DHT22;5269;51.146;16.986;2024-03-02T03:37:47;9.50;99.90
10443;DHT22;5269;51.146;16.986;2024-03-02T03:40:17;9.50;99.90
10443;DHT22;5269;51.146;16.986;2024-03-02T03:42:46;9.50;99.90
10443;DHT22;5269;51.146;16.986;2024-03-02T03:45:17;9.60;99.90
10443;DHT22;5269;51.146;16.986;2024-03-02T03:47:46;9.60;99.90
10443;DHT22;5269;51.146;16.986;2024-03-02T03:50:16;9.60;99.90
10443;DHT22;5269;51.146;16.986;2024-03-02T03:52:48;9.60;99.90
10443;DHT22;5269;51.146;16.986;2024-03-02T03:55:18;9.60;99.90
10443;DHT22;5269;51.146;16.986;2024-03-02T03:57:47;9.60;99.90
10443;DHT22;5269;51.146;16.986;2024-03-02T04:00:17;9.60;99.90
10443;DHT22;5269;51.146;16.986;2024-03-02T04:02:47;9.70;99.90
10443;DHT22;5269;51.146;16.986;2024-03-02T04:05:16;9.70;99.90
10443;DHT22;5269;51.146;16.986;2024-03-02T04:07:48;9.70;99.90
10443;DHT22;5269;51.146;16.986;2024-03-02T04:10:18;9.70;99.90
10443;DHT22;5269;51.146;16.986;2024-03-02T04:12:49;9.70;99.90
10443;DHT22;5269;51.146;16.986;2024-03-02T04:15:18;9.70;99.90
10443;DHT22;5269;51.146;16.986;2024-03-02T04:17:49;9.70;99.90
10443;DHT22;5269;51.146;16.986;2024-03-02T04:20:18;9.70;99.90
10443;DHT22;5269;51.146;16.986;2024-03-02T04:22:50;9.70;99.90
10443;DHT22;5269;51.146;16.986;2024-03-02T04:25:23;9.70;99.90
10443;DHT22;5269;51.146;16.986;2024-03-02T04:27:52;9.70;99.90
10443;DHT22;5269;51.146;16.986;2024-03-02T04:30:22;9.70;99.90
10443;DHT22;5269;51.146;16.986;2024-03-02T04:32:51;9.70;99.90
10443;DHT22;5269;51.146;16.986;2024-03-02T04:35:21;9.60;99.90
10443;DHT22;5269;51.146;16.986;2024-03-02T04:37:54;9.60;99.90
10443;DHT22;5269;51.146;16.986;2024-03-02T04:40:23;9.60;99.90
10443;DHT22;5269;51.146;16.986;2024-03-02T04:42:53;9.60;99.90
10443;DHT22;5269;51.146;16.986;2024-03-02T04:45:27;9.60;99.90
10443;DHT22;5269;51.146;16.986;2024-03-02T04:47:56;9.50;99.90
10443;DHT22;5269;51.146;16.986;2024-03-02T04:50:34;9.40;99.90
10443;DHT22;5269;51.146;16.986;2024-03-02T04:53:06;9.30;99.90
10443;DHT22;5269;51.146;16.986;2024-03-02T04:55:36;9.40;99.90
10443;DHT22;5269;51.146;16.986;2024-03-02T04:58:20;9.30;99.90
10443;DHT22;5269;51.146;16.986;2024-03-02T05:00:50;9.30;99.90
10443;DHT22;5269;51.146;16.986;2024-03-02T05:03:19;9.30;99.90
10443;DHT22;5269;51.146;16.986;2024-03-02T05:05:49;9.30;99.90
10443;DHT22;5269;51.146;16.986;2024-03-02T05:08:21;9.30;99.90
10443;DHT22;5269;51.146;16.986;2024-03-02T05:10:50;9.20;99.90
10443;DHT22;5269;51.146;16.986;2024-03-02T05:13:20;9.30;99.90
10443;DHT22;5269;51.146;16.986;2024-03-02T05:15:47;9.30;99.90
10443;DHT22;5269;51.146;16.986;2024-03-02T05:18:17;9.30;99.90
10443;DHT22;5269;51.146;16.986;2024-03-02T05:20:46;9.40;99.90
10443;DHT22;5269;51.146;16.986;2024-03-02T05:23:16;9.30;99.90
10443;DHT22;5269;51.146;16.986;2024-03-02T05:25:48;9.30;99.90
10443;DHT22;5269;51.146;16.986;2024-03-02T05:28:17;9.30;99.90
10443;DHT22;5269;51.146;16.986;2024-03-02T05:30:46;9.20;99.90
10443;DHT22;5269;51.146;16.986;2024-03-02T05:57:22;8.90;99.90
10443;DHT22;5269;51.146;16.986;2024-03-02T06:00:06;8.90;99.90
10443;DHT22;5269;51.146;16.986;2024-03-02T06:02:40;9.00;99.90
10443;DHT22;5269;51.146;16.986;2024-03-02T06:05:09;9.00;99.90
10443;DHT22;5269;51.146;16.986;2024-03-02T06:07:39;9.00;99.90
10443;DHT22;5269;51.146;16.986;2024-03-02T06:10:09;9.00;99.90
10443;DHT22;5269;51.146;16.986;2024-03-02T06:12:40;9.00;99.90
10443;DHT22;5269;51.146;16.986;2024-03-02T06:15:10;9.00;99.90
10443;DHT22;5269;51.146;16.986;2024-03-02T06:17:39;9.00;99.90
10443;DHT22;5269;51.146;16.986;2024-03-02T06:20:10;9.00;99.90
10443;DHT22;5269;51.146;16.986;2024-03-02T06:22:39;9.00;99.90
10443;DHT22;5269;51.146;16.986;2024-03-02T06:25:11;9.00;99.90
10443;DHT22;5269;51.146;16.986;2024-03-02T06:27:43;9.00;99.90
10443;DHT22;5269;51.146;16.986;2024-03-02T06:30:13;9.00;99.90
10443;DHT22;5269;51.146;16.986;2024-03-02T06:32:42;9.00;99.90
10443;DHT22;5269;51.146;16.986;2024-03-02T06:35:12;9.00;99.90
10443;DHT22;5269;51.146;16.986;2024-03-02T06:37:41;9.10;99.90
10443;DHT22;5269;51.146;16.986;2024-03-02T06:40:10;9.10;99.90
10443;DHT22;5269;51.146;16.986;2024-03-02T06:42:40;9.10;99.90
10443;DHT22;5269;51.146;16.986;2024-03-02T06:45:11;9.20;99.90
10443;DHT22;5269;51.146;16.986;2024-03-02T06:47:41;9.20;99.90
10443;DHT22;5269;51.146;16.986;2024-03-02T06:50:10;9.20;99.90
10443;DHT22;5269;51.146;16.986;2024-03-02T06:52:39;9.30;99.90
10443;DHT22;5269;51.146;16.986;2024-03-02T06:55:09;9.30;99.90
10443;DHT22;5269;51.146;16.986;2024-03-02T06:57:39;9.30;99.90
10443;DHT22;5269;51.146;16.986;2024-03-02T07:00:12;9.50;99.90
10443;DHT22;5269;51.146;16.986;2024-03-02T07:02:42;9.50;99.90
10443;DHT22;5269;51.146;16.986;2024-03-02T07:05:11;9.50;99.90
10443;DHT22;5269;51.146;16.986;2024-03-02T07:07:41;9.60;99.90
10443;DHT22;5269;51.146;16.986;2024-03-02T07:10:10;9.70;99.90
10443;DHT22;5269;51.146;16.986;2024-03-02T07:12:40;9.80;99.90
10443;DHT22;5269;51.146;16.986;2024-03-02T07:15:13;9.80;99.90
10443;DHT22;5269;51.146;16.986;2024-03-02T07:18:10;9.80;99.90
10443;DHT22;5269;51.146;16.986;2024-03-02T07:20:40;9.90;99.90
10443;DHT22;5269;51.146;16.986;2024-03-02T07:23:09;9.90;99.90
10443;DHT22;5269;51.146;16.986;2024-03-02T07:28:22;10.20;99.90
10443;DHT22;5269;51.146;16.986;2024-03-02T07:31:00;10.40;99.90
10443;DHT22;5269;51.146;16.986;2024-03-02T07:33:30;10.60;99.90
10443;DHT22;5269;51.146;16.986;2024-03-02T07:36:00;10.70;99.90
10443;DHT22;5269;51.146;16.986;2024-03-02T07:38:30;10.90;99.90
10443;DHT22;5269;51.146;16.986;2024-03-02T07:41:00;11.00;99.90
10443;DHT22;5269;51.146;16.986;2024-03-02T07:43:30;11.10;99.90
10443;DHT22;5269;51.146;16.986;2024-03-02T07:46:03;11.30;99.90
10443;DHT22;5269;51.146;16.986;2024-03-02T07:48:33;11.50;99.90
10443;DHT22;5269;51.146;16.986;2024-03-02T07:51:03;11.50;99.90
10443;DHT22;5269;51.146;16.986;2024-03-02T07:53:33;11.60;99.90
10443;DHT22;5269;51.146;16.986;2024-03-02T07:56:03;11.50;99.90
10443;DHT22;5269;51.146;16.986;2024-03-02T07:58:33;11.70;99.90
10443;DHT22;5269;51.146;16.986;2024-03-02T08:01:05;11.70;99.90
10443;DHT22;5269;51.146;16.986;2024-03-02T08:03:35;11.60;99.90
10443;DHT22;5269;51.146;16.986;2024-03-02T08:06:04;11.80;99.90
10443;DHT22;5269;51.146;16.986;2024-03-02T08:08:33;11.80;99.90
10443;DHT22;5269;51.146;16.986;2024-03-02T08:11:03;11.80;99.90
10443;DHT22;5269;51.146;16.986;2024-03-02T08:13:32;11.80;99.90
10443;DHT22;5269;51.146;16.986;2024-03-02T08:16:02;11.80;99.90
10443;DHT22;5269;51.146;16.986;2024-03-02T08:18:36;12.00;99.90
10443;DHT22;5269;51.146;16.986;2024-03-02T08:21:08;12.00;99.90
10443;DHT22;5269;51.146;16.986;2024-03-02T08:23:37;12.10;99.90
10443;DHT22;5269;51.146;16.986;2024-03-02T08:26:11;12.00;99.90
10443;DHT22;5269;51.146;16.986;2024-03-02T08:28:41;12.20;99.90
10443;DHT22;5269;51.146;16.986;2024-03-02T08:31:10;12.20;99.90
10443;DHT22;5269;51.146;16.986;2024-03-02T08:33:42;12.30;99.90
10443;DHT22;5269;51.146;16.986;2024-03-02T08:36:11;12.30;99.90
10443;DHT22;5269;51.146;16.986;2024-03-02T08:38:41;12.40;99.90
10443;DHT22;5269;51.146;16.986;2024-03-02T08:41:07;12.40;99.90
10443;DHT22;5269;51.146;16.986;2024-03-02T08:43:42;12.30;99.90
10443;DHT22;5269;51.146;16.986;2024-03-02T08:46:12;12.30;99.90
10443;DHT22;5269;51.146;16.986;2024-03-02T08:48:46;12.40;99.90
10443;DHT22;5269;51.146;16.986;2024-03-02T08:51:16;12.30;99.90
10443;DHT22;5269;51.146;16.986;2024-03-02T08:53:45;12.50;99.90
10443;DHT22;5269;51.146;16.986;2024-03-02T08:56:15;12.40;99.90
10443;DHT22;5269;51.146;16.986;2024-03-02T08:58:46;12.40;99.90
10443;DHT22;5269;51.146;16.986;2024-03-02T09:01:16;12.50;99.90
10443;DHT22;5269;51.146;16.986;2024-03-02T09:03:48;12.60;66.00
10443;DHT22;5269;51.146;16.986;2024-03-02T09:06:18;12.70;99.90
10443;DHT22;5269;51.146;16.986;2024-03-02T09:08:47;12.70;33.90
10443;DHT22;5269;51.146;16.986;2024-03-02T09:11:18;12.70;1.00
10443;DHT22;5269;51.146;16.986;2024-03-02T09:13:47;12.80;36.50
10443;DHT22;5269;51.146;16.986;2024-03-02T09:16:16;13.00;1.00
10443;DHT22;5269;51.146;16.986;2024-03-02T09:18:48;13.10;1.00
10443;DHT22;5269;51.146;16.986;2024-03-02T09:21:18;13.20;1.00
10443;DHT22;5269;51.146;16.986;2024-03-02T09:23:47;13.20;99.90
10443;DHT22;5269;51.146;16.986;2024-03-02T09:26:16;13.20;1.00
10443;DHT22;5269;51.146;16.986;2024-03-02T09:28:46;13.20;99.90
10443;DHT22;5269;51.146;16.986;2024-03-02T09:31:15;13.20;99.90
10443;DHT22;5269;51.146;16.986;2024-03-02T09:33:44;13.20;87.20
10443;DHT22;5269;51.146;16.986;2024-03-02T09:36:22;13.20;1.00
10443;DHT22;5269;51.146;16.986;2024-03-02T09:38:51;13.40;99.90
10443;DHT22;5269;51.146;16.986;2024-03-02T09:41:21;13.40;1.00
10443;DHT22;5269;51.146;16.986;2024-03-02T09:43:50;13.30;99.90
10443;DHT22;5269;51.146;16.986;2024-03-02T09:46:20;13.40;1.00
10443;DHT22;5269;51.146;16.986;2024-03-02T09:48:49;13.40;1.00
10443;DHT22;5269;51.146;16.986;2024-03-02T09:51:23;13.60;1.00
10443;DHT22;5269;51.146;16.986;2024-03-02T09:53:54;13.60;1.00
10443;DHT22;5269;51.146;16.986;2024-03-02T09:56:24;13.70;1.00
10443;DHT22;5269;51.146;16.986;2024-03-02T09:58:53;13.80;1.00
10443;DHT22;5269;51.146;16.986;2024-03-02T10:01:22;13.70;58.50
10443;DHT22;5269;51.146;16.986;2024-03-02T10:03:55;13.70;55.90
10443;DHT22;5269;51.146;16.986;2024-03-02T10:06:29;13.90;99.90
10443;DHT22;5269;51.146;16.986;2024-03-02T10:09:00;14.00;1.00
10443;DHT22;5269;51.146;16.986;2024-03-02T10:11:31;14.10;99.90
10443;DHT22;5269;51.146;16.986;2024-03-02T10:14:10;14.20;99.90
10443;DHT22;5269;51.146;16.986;2024-03-02T10:16:49;14.20;92.10
10443;DHT22;5269;51.146;16.986;2024-03-02T10:19:21;14.20;1.00
10443;DHT22;5269;51.146;16.986;2024-03-02T10:21:55;14.20;99.90
10443;DHT22;5269;51.146;16.986;2024-03-02T10:24:35;14.10;1.00
10443;DHT22;5269;51.146;16.986;2024-03-02T10:27:08;14.20;99.90
10443;DHT22;5269;51.146;16.986;2024-03-02T10:29:40;14.10;99.90
10443;DHT22;5269;51.146;16.986;2024-03-02T10:32:10;14.10;1.00
10443;DHT22;5269;51.146;16.986;2024-03-02T10:34:45;14.00;1.00
10443;DHT22;5269;51.146;16.986;2024-03-02T10:37:17;14.20;1.00
10443;DHT22;5269;51.146;16.986;2024-03-02T10:39:48;14.20;1.00
10443;DHT22;5269;51.146;16.986;2024-03-02T10:42:19;14.10;99.90
10443;DHT22;5269;51.146;16.986;2024-03-02T10:44:49;14.10;99.90
10443;DHT22;5269;51.146;16.986;2024-03-02T10:47:20;14.10;23.30
10443;DHT22;5269;51.146;16.986;2024-03-02T10:49:51;14.10;1.00
10443;DHT22;5269;51.146;16.986;2024-03-02T10:52:24;14.30;1.00
10443;DHT22;5269;51.146;16.986;2024-03-02T10:54:53;14.30;95.30
10443;DHT22;5269;51.146;16.986;2024-03-02T10:57:25;14.30;1.00
10443;DHT22;5269;51.146;16.986;2024-03-02T10:59:57;14.40;1.00
10443;DHT22;5269;51.146;16.986;2024-03-02T11:02:35;14.50;99.90
10443;DHT22;5269;51.146;16.986;2024-03-02T11:05:08;14.50;99.90
10443;DHT22;5269;51.146;16.986;2024-03-02T11:07:42;14.60;99.90
10443;DHT22;5269;51.146;16.986;2024-03-02T11:10:12;14.70;1.00
10443;DHT22;5269;51.146;16.986;2024-03-02T11:12:48;14.80;1.00
10443;DHT22;5269;51.146;16.986;2024-03-02T11:15:19;14.60;1.00
10443;DHT22;5269;51.146;16.986;2024-03-02T11:17:52;14.60;1.00
10443;DHT22;5269;51.146;16.986;2024-03-02T11:20:22;14.70;1.00
10443;DHT22;5269;51.146;16.986;2024-03-02T11:22:54;14.70;1.00
10443;DHT22;5269;51.146;16.986;2024-03-02T11:25:24;14.80;99.90
10443;DHT22;5269;51.146;16.986;2024-03-02T11:28:00;14.70;1.00
10443;DHT22;5269;51.146;16.986;2024-03-02T11:30:49;14.70;99.90
10443;DHT22;5269;51.146;16.986;2024-03-02T11:33:24;14.70;1.00
10443;DHT22;5269;51.146;16.986;2024-03-02T11:35:55;14.70;1.00
10443;DHT22;5269;51.146;16.986;2024-03-02T11:38:31;14.70;99.90
10443;DHT22;5269;51.146;16.986;2024-03-02T11:41:02;14.70;99.90
10443;DHT22;5269;51.146;16.986;2024-03-02T11:43:39;14.70;99.90
10443;DHT22;5269;51.146;16.986;2024-03-02T11:46:15;14.80;1.00
10443;DHT22;5269;51.146;16.986;2024-03-02T11:48:44;14.90;1.00
10443;DHT22;5269;51.146;16.986;2024-03-02T11:51:16;15.00;1.00
10443;DHT22;5269;51.146;16.986;2024-03-02T11:53:49;14.90;1.00
10443;DHT22;5269;51.146;16.986;2024-03-02T11:56:19;14.90;1.00
10443;DHT22;5269;51.146;16.986;2024-03-02T11:58:52;14.90;99.90
10443;DHT22;5269;51.146;16.986;2024-03-02T12:01:22;14.90;1.00
10443;DHT22;5269;51.146;16.986;2024-03-02T12:03:59;15.00;1.00
10443;DHT22;5269;51.146;16.986;2024-03-02T12:06:29;14.90;99.90
10443;DHT22;5269;51.146;16.986;2024-03-02T12:09:05;15.00;84.00
10443;DHT22;5269;51.146;16.986;2024-03-02T12:11:37;15.10;99.90
10443;DHT22;5269;51.146;16.986;2024-03-02T12:14:12;15.10;1.00
10443;DHT22;5269;51.146;16.986;2024-03-02T12:16:43;14.90;1.00
10443;DHT22;5269;51.146;16.986;2024-03-02T12:19:14;14.90;99.90
10443;DHT22;5269;51.146;16.986;2024-03-02T12:21:43;15.00;1.00
10443;DHT22;5269;51.146;16.986;2024-03-02T12:24:16;15.00;1.00
10443;DHT22;5269;51.146;16.986;2024-03-02T12:26:46;15.20;99.90
10443;DHT22;5269;51.146;16.986;2024-03-02T12:29:19;15.20;1.00
10443;DHT22;5269;51.146;16.986;2024-03-02T12:31:49;15.30;94.30
10443;DHT22;5269;51.146;16.986;2024-03-02T12:34:19;15.20;1.00
10443;DHT22;5269;51.146;16.986;2024-03-02T12:36:48;15.00;1.00
10443;DHT22;5269;51.146;16.986;2024-03-02T12:39:22;15.00;1.00
10443;DHT22;5269;51.146;16.986;2024-03-02T12:41:51;15.00;99.90
10443;DHT22;5269;51.146;16.986;2024-03-02T12:44:21;15.10;99.90
10443;DHT22;5269;51.146;16.986;2024-03-02T12:46:51;15.00;99.90
10443;DHT22;5269;51.146;16.986;2024-03-02T12:49:22;15.00;99.90
10443;DHT22;5269;51.146;16.986;2024-03-02T12:51:53;15.10;1.00
10443;DHT22;5269;51.146;16.986;2024-03-02T12:54:26;15.10;99.90
10443;DHT22;5269;51.146;16.986;2024-03-02T12:56:58;15.20;99.90
10443;DHT22;5269;51.146;16.986;2024-03-02T12:59:28;15.30;99.90
10443;DHT22;5269;51.146;16.986;2024-03-02T13:02:00;15.60;1.00
10443;DHT22;5269;51.146;16.986;2024-03-02T13:04:30;15.70;30.50
10443;DHT22;5269;51.146;16.986;2024-03-02T13:07:01;15.50;1.00
10443;DHT22;5269;51.146;16.986;2024-03-02T13:09:38;15.40;1.00
10443;DHT22;5269;51.146;16.986;2024-03-02T13:12:07;15.40;99.90
10443;DHT22;5269;51.146;16.986;2024-03-02T13:14:37;15.50;1.00
10443;DHT22;5269;51.146;16.986;2024-03-02T13:17:08;15.50;1.00
10443;DHT22;5269;51.146;16.986;2024-03-02T13:19:50;15.60;1.00
10443;DHT22;5269;51.146;16.986;2024-03-02T13:22:20;15.70;1.00
10443;DHT22;5269;51.146;16.986;2024-03-02T13:24:53;15.80;1.00
10443;DHT22;5269;51.146;16.986;2024-03-02T13:27:23;15.70;1.00
10443;DHT22;5269;51.146;16.986;2024-03-02T13:29:54;15.70;1.00
10443;DHT22;5269;51.146;16.986;2024-03-02T13:32:23;15.70;1.00
10443;DHT22;5269;51.146;16.986;2024-03-02T13:34:53;15.70;99.90
10443;DHT22;5269;51.146;16.986;2024-03-02T13:37:22;15.70;99.90
10443;DHT22;5269;51.146;16.986;2024-03-02T13:39:54;15.80;99.90
10443;DHT22;5269;51.146;16.986;2024-03-02T13:42:24;15.80;99.90
10443;DHT22;5269;51.146;16.986;2024-03-02T13:44:53;15.80;99.90
10443;DHT22;5269;51.146;16.986;2024-03-02T13:47:23;15.60;1.00
10443;DHT22;5269;51.146;16.986;2024-03-02T13:49:52;15.40;38.20
10443;DHT22;5269;51.146;16.986;2024-03-02T13:52:21;15.50;99.90
10443;DHT22;5269;51.146;16.986;2024-03-02T13:54:54;15.40;99.90
10443;DHT22;5269;51.146;16.986;2024-03-02T13:57:24;15.40;42.40
10443;DHT22;5269;51.146;16.986;2024-03-02T13:59:54;15.30;1.00
10443;DHT22;5269;51.146;16.986;2024-03-02T14:02:23;15.30;1.00
10443;DHT22;5269;51.146;16.986;2024-03-02T14:04:53;15.30;1.00
10443;DHT22;5269;51.146;16.986;2024-03-02T14:07:22;15.20;1.00
10443;DHT22;5269;51.146;16.986;2024-03-02T14:09:54;15.10;1.00
10443;DHT22;5269;51.146;16.986;2024-03-02T14:12:23;15.10;1.00
10443;DHT22;5269;51.146;16.986;2024-03-02T14:14:52;15.00;1.00
10443;DHT22;5269;51.146;16.986;2024-03-02T14:17:24;14.90;1.00
10443;DHT22;5269;51.146;16.986;2024-03-02T14:19:54;14.90;1.00
10443;DHT22;5269;51.146;16.986;2024-03-02T14:22:25;14.80;1.00
10443;DHT22;5269;51.146;16.986;2024-03-02T14:24:56;14.70;1.00
10443;DHT22;5269;51.146;16.986;2024-03-02T14:27:26;14.70;1.00
10443;DHT22;5269;51.146;16.986;2024-03-02T14:29:55;14.70;1.00
10443;DHT22;5269;51.146;16.986;2024-03-02T14:32:25;14.70;1.00
10443;DHT22;5269;51.146;16.986;2024-03-02T14:34:54;14.60;1.00
10443;DHT22;5269;51.146;16.986;2024-03-02T14:37:23;14.60;1.00
10443;DHT22;5269;51.146;16.986;2024-03-02T14:39:52;14.70;1.00
10443;DHT22;5269;51.146;16.986;2024-03-02T14:42:25;14.60;1.00
10443;DHT22;5269;51.146;16.986;2024-03-02T14:44:57;14.60;1.00
10443;DHT22;5269;51.146;16.986;2024-03-02T14:47:29;14.70;1.00
10443;DHT22;5269;51.146;16.986;2024-03-02T14:49:58;14.50;1.00
10443;DHT22;5269;51.146;16.986;2024-03-02T14:52:30;14.40;1.00
10443;DHT22;5269;51.146;16.986;2024-03-02T14:54:59;14.40;53.60
10443;DHT22;5269;51.146;16.986;2024-03-02T14:57:31;14.40;1.00
10443;DHT22;5269;51.146;16.986;2024-03-02T15:00:00;14.30;1.00
10443;DHT22;5269;51.146;16.986;2024-03-02T15:02:32;14.20;1.00
10443;DHT22;5269;51.146;16.986;2024-03-02T15:04:59;14.10;90.50
10443;DHT22;5269;51.146;16.986;2024-03-02T15:07:28;14.10;99.90
10443;DHT22;5269;51.146;16.986;2024-03-02T15:09:58;14.10;99.90
10443;DHT22;5269;51.146;16.986;2024-03-02T15:12:32;14.10;99.90
10443;DHT22;5269;51.146;16.986;2024-03-02T15:15:02;14.10;99.90
10443;DHT22;5269;51.146;16.986;2024-03-02T15:17:50;14.00;99.90
10443;DHT22;5269;51.146;16.986;2024-03-02T15:20:19;14.00;1.00
10443;DHT22;5269;51.146;16.986;2024-03-02T15:22:49;13.90;1.00
10443;DHT22;5269;51.146;16.986;2024-03-02T15:25:18;14.00;1.00
10443;DHT22;5269;51.146;16.986;2024-03-02T15:27:50;14.00;1.00
10443;DHT22;5269;51.146;16.986;2024-03-02T15:30:19;14.00;1.00
10443;DHT22;5269;51.146;16.986;2024-03-02T15:32:48;14.00;1.00
10443;DHT22;5269;51.146;16.986;2024-03-02T15:35:17;14.10;1.00
10443;DHT22;5269;51.146;16.986;2024-03-02T15:37:47;14.00;1.00
10443;DHT22;5269;51.146;16.986;2024-03-02T15:40:16;14.00;1.00
10443;DHT22;5269;51.146;16.986;2024-03-02T15:42:45;13.90;1.00
10443;DHT22;5269;51.146;16.986;2024-03-02T15:45:17;13.80;1.40
10443;DHT22;5269;51.146;16.986;2024-03-02T15:47:47;13.80;99.90
10443;DHT22;5269;51.146;16.986;2024-03-02T15:50:16;13.70;99.90
10443;DHT22;5269;51.146;16.986;2024-03-02T15:52:45;13.70;1.00
10443;DHT22;5269;51.146;16.986;2024-03-02T15:55:15;13.70;1.00
10443;DHT22;5269;51.146;16.986;2024-03-02T15:57:44;13.70;1.00
10443;DHT22;5269;51.146;16.986;2024-03-02T16:00:17;13.60;99.90
10443;DHT22;5269;51.146;16.986;2024-03-02T16:02:48;13.50;1.00
10443;DHT22;5269;51.146;16.986;2024-03-02T16:05:17;13.50;99.90
10443;DHT22;5269;51.146;16.986;2024-03-02T16:07:50;13.50;99.90
10443;DHT22;5269;51.146;16.986;2024-03-02T16:10:19;13.50;99.90
10443;DHT22;5269;51.146;16.986;2024-03-02T16:12:50;13.50;99.90
10443;DHT22;5269;51.146;16.986;2024-03-02T16:15:30;13.40;1.00
10443;DHT22;5269;51.146;16.986;2024-03-02T16:30:25;13.20;1.00
10443;DHT22;5269;51.146;16.986;2024-03-02T16:45:24;13.00;99.90
10443;DHT22;5269;51.146;16.986;2024-03-02T16:51:41;13.00;1.00
10443;DHT22;5269;51.146;16.986;2024-03-02T16:54:16;12.90;1.00
10443;DHT22;5269;51.146;16.986;2024-03-02T16:56:49;12.90;16.60
10443;DHT22;5269;51.146;16.986;2024-03-02T16:59:27;13.00;99.90